sensor_id;sensor_type;location;lat;lon;timestamp;temperature;humidity
42803;DHT22;28447;48.682;9.022;2022-08-01T00:00:39;18.10;99.90
42803;DHT22;28447;48.682;9.022;2022-08-01T00:03:05;18.10;99.90
42803;DHT22;28447;48.682;9.022;2022-08-01T00:05:31;18.00;99.90
42803;DHT22;28447;48.682;9.022;2022-08-01T00:07:57;18.00;99.90
42803;DHT22;28447;48.682;9.022;2022-08-01T00:10:22;17.90;99.90
42803;DHT22;28447;48.682;9.022;2022-08-01T00:12:48;17.90;99.90
42803;DHT22;28447;48.682;9.022;2022-08-01T00:15:16;18.00;99.90
42803;DHT22;28447;48.682;9.022;2022-08-01T00:17:42;17.90;99.90
42803;DHT22;28447;48.682;9.022;2022-08-01T00:20:11;17.80;99.90
42803;DHT22;28447;48.682;9.022;2022-08-01T00:22:37;17.80;99.90
42803;DHT22;28447;48.682;9.022;2022-08-01T00:25:04;17.70;99.90
42803;DHT22;28447;48.682;9.022;2022-08-01T00:27:30;17.70;99.90
42803;DHT22;28447;48.682;9.022;2022-08-01T00:29:55;17.70;99.90
42803;DHT22;28447;48.682;9.022;2022-08-01T00:32:21;17.60;99.90
42803;DHT22;28447;48.682;9.022;2022-08-01T00:34:47;17.60;99.90
42803;DHT22;28447;48.682;9.022;2022-08-01T00:37:12;17.50;99.90
42803;DHT22;28447;48.682;9.022;2022-08-01T00:39:38;17.50;99.90
42803;DHT22;28447;48.682;9.022;2022-08-01T00:42:10;17.40;99.90
42803;DHT22;28447;48.682;9.022;2022-08-01T00:44:36;17.40;99.90
42803;DHT22;28447;48.682;9.022;2022-08-01T00:47:03;17.30;99.90
42803;DHT22;28447;48.682;9.022;2022-08-01T00:49:29;17.20;99.90
42803;DHT22;28447;48.682;9.022;2022-08-01T00:51:55;17.10;99.90
42803;DHT22;28447;48.682;9.022;2022-08-01T00:54:23;17.10;99.90
42803;DHT22;28447;48.682;9.022;2022-08-01T00:56:48;17.10;99.90
42803;DHT22;28447;48.682;9.022;2022-08-01T00:59:17;17.10;99.90
42803;DHT22;28447;48.682;9.022;2022-08-01T01:01:43;17.20;99.90
42803;DHT22;28447;48.682;9.022;2022-08-01T01:04:08;17.20;99.90
42803;DHT22;28447;48.682;9.022;2022-08-01T01:14:42;17.10;99.90
42803;DHT22;28447;48.682;9.022;2022-08-01T01:17:14;17.10;99.90
42803;DHT22;28447;48.682;9.022;2022-08-01T01:19:47;17.00;99.90
42803;DHT22;28447;48.682;9.022;2022-08-01T01:22:24;17.00;99.90
42803;DHT22;28447;48.682;9.022;2022-08-01T01:28:02;17.00;99.90
42803;DHT22;28447;48.682;9.022;2022-08-01T01:30:29;17.00;99.90
42803;DHT22;28447;48.682;9.022;2022-08-01T01:32:59;17.00;99.90
42803;DHT22;28447;48.682;9.022;2022-08-01T01:35:31;16.90;99.90
42803;DHT22;28447;48.682;9.022;2022-08-01T01:38:16;16.90;99.90
42803;DHT22;28447;48.682;9.022;2022-08-01T01:40:44;16.80;99.90
42803;DHT22;28447;48.682;9.022;2022-08-01T01:43:11;16.90;99.90
42803;DHT22;28447;48.682;9.022;2022-08-01T01:45:38;16.90;99.90
42803;DHT22;28447;48.682;9.022;2022-08-01T01:48:05;16.80;99.90
42803;DHT22;28447;48.682;9.022;2022-08-01T01:50:32;16.80;99.90
42803;DHT22;28447;48.682;9.022;2022-08-01T01:52:59;16.80;99.90
42803;DHT22;28447;48.682;9.022;2022-08-01T01:55:26;17.00;99.90
42803;DHT22;28447;48.682;9.022;2022-08-01T01:57:55;17.00;99.90
42803;DHT22;28447;48.682;9.022;2022-08-01T02:00:22;17.00;99.90
42803;DHT22;28447;48.682;9.022;2022-08-01T02:02:49;17.10;99.90
42803;DHT22;28447;48.682;9.022;2022-08-01T02:05:17;17.10;99.90
42803;DHT22;28447;48.682;9.022;2022-08-01T02:07:43;17.00;99.90
42803;DHT22;28447;48.682;9.022;2022-08-01T02:10:11;17.00;99.90
42803;DHT22;28447;48.682;9.022;2022-08-01T02:12:40;17.10;99.90
42803;DHT22;28447;48.682;9.022;2022-08-01T02:15:07;17.00;99.90
42803;DHT22;28447;48.682;9.022;2022-08-01T02:17:39;17.00;99.90
42803;DHT22;28447;48.682;9.022;2022-08-01T02:20:07;17.00;99.90
42803;DHT22;28447;48.682;9.022;2022-08-01T02:22:36;17.00;99.90
42803;DHT22;28447;48.682;9.022;2022-08-01T02:25:16;17.00;99.90
42803;DHT22;28447;48.682;9.022;2022-08-01T02:28:13;16.90;99.90
42803;DHT22;28447;48.682;9.022;2022-08-01T02:30:38;16.80;99.90
42803;DHT22;28447;48.682;9.022;2022-08-01T02:33:18;16.70;99.90
42803;DHT22;28447;48.682;9.022;2022-08-01T02:35:50;16.70;99.90
42803;DHT22;28447;48.682;9.022;2022-08-01T02:38:17;16.70;99.90
42803;DHT22;28447;48.682;9.022;2022-08-01T02:40:46;16.60;99.90
42803;DHT22;28447;48.682;9.022;2022-08-01T02:43:15;16.60;99.90
42803;DHT22;28447;48.682;9.022;2022-08-01T02:45:45;16.60;99.90
42803;DHT22;28447;48.682;9.022;2022-08-01T02:48:14;16.60;99.90
42803;DHT22;28447;48.682;9.022;2022-08-01T02:50:45;16.50;99.90
42803;DHT22;28447;48.682;9.022;2022-08-01T02:53:13;16.60;99.90
42803;DHT22;28447;48.682;9.022;2022-08-01T02:55:41;16.70;99.90
42803;DHT22;28447;48.682;9.022;2022-08-01T02:58:09;16.80;99.90
42803;DHT22;28447;48.682;9.022;2022-08-01T03:00:36;16.90;99.90
42803;DHT22;28447;48.682;9.022;2022-08-01T03:03:03;17.10;99.90
42803;DHT22;28447;48.682;9.022;2022-08-01T03:05:30;17.30;99.90
42803;DHT22;28447;48.682;9.022;2022-08-01T03:07:59;17.50;99.90
42803;DHT22;28447;48.682;9.022;2022-08-01T03:10:27;17.60;99.90
42803;DHT22;28447;48.682;9.022;2022-08-01T03:12:55;17.80;99.90
42803;DHT22;28447;48.682;9.022;2022-08-01T03:15:23;18.00;99.90
42803;DHT22;28447;48.682;9.022;2022-08-01T03:17:51;18.10;99.90
42803;DHT22;28447;48.682;9.022;2022-08-01T03:20:19;18.20;99.90
42803;DHT22;28447;48.682;9.022;2022-08-01T03:22:47;18.30;99.90
42803;DHT22;28447;48.682;9.022;2022-08-01T03:25:18;18.20;99.90
42803;DHT22;28447;48.682;9.022;2022-08-01T03:27:50;18.60;99.90
42803;DHT22;28447;48.682;9.022;2022-08-01T03:32:43;18.50;99.90
42803;DHT22;28447;48.682;9.022;2022-08-01T03:35:09;17.90;99.90
42803;DHT22;28447;48.682;9.022;2022-08-01T03:37:47;17.90;99.90
42803;DHT22;28447;48.682;9.022;2022-08-01T03:40:31;17.70;99.90
42803;DHT22;28447;48.682;9.022;2022-08-01T03:43:09;17.40;99.90
42803;DHT22;28447;48.682;9.022;2022-08-01T03:45:39;17.40;99.90
42803;DHT22;28447;48.682;9.022;2022-08-01T03:48:10;17.10;99.90
42803;DHT22;28447;48.682;9.022;2022-08-01T03:50:41;17.70;99.90
42803;DHT22;28447;48.682;9.022;2022-08-01T03:53:08;17.40;99.90
42803;DHT22;28447;48.682;9.022;2022-08-01T03:55:36;17.60;99.90
42803;DHT22;28447;48.682;9.022;2022-08-01T03:58:03;17.50;99.90
42803;DHT22;28447;48.682;9.022;2022-08-01T04:00:30;17.20;99.90
42803;DHT22;28447;48.682;9.022;2022-08-01T04:02:56;16.90;99.90
42803;DHT22;28447;48.682;9.022;2022-08-01T04:05:22;16.80;99.90
42803;DHT22;28447;48.682;9.022;2022-08-01T04:07:50;17.00;99.90
42803;DHT22;28447;48.682;9.022;2022-08-01T04:10:27;17.10;99.90
42803;DHT22;28447;48.682;9.022;2022-08-01T04:12:53;17.30;99.90
42803;DHT22;28447;48.682;9.022;2022-08-01T04:15:19;16.80;99.90
42803;DHT22;28447;48.682;9.022;2022-08-01T04:17:46;16.80;99.90
42803;DHT22;28447;48.682;9.022;2022-08-01T04:20:12;16.70;99.90
42803;DHT22;28447;48.682;9.022;2022-08-01T04:22:38;16.70;99.90
42803;DHT22;28447;48.682;9.022;2022-08-01T04:25:09;16.30;99.90
42803;DHT22;28447;48.682;9.022;2022-08-01T04:27:38;16.50;99.90
42803;DHT22;28447;48.682;9.022;2022-08-01T04:30:06;16.30;99.90
42803;DHT22;28447;48.682;9.022;2022-08-01T04:32:33;16.00;99.90
42803;DHT22;28447;48.682;9.022;2022-08-01T04:35:03;16.00;99.90
42803;DHT22;28447;48.682;9.022;2022-08-01T04:37:30;16.40;99.90
42803;DHT22;28447;48.682;9.022;2022-08-01T04:39:57;16.40;99.90
42803;DHT22;28447;48.682;9.022;2022-08-01T04:42:23;16.30;99.90
42803;DHT22;28447;48.682;9.022;2022-08-01T04:44:50;16.50;99.90
42803;DHT22;28447;48.682;9.022;2022-08-01T04:47:16;16.90;99.90
42803;DHT22;28447;48.682;9.022;2022-08-01T04:49:43;16.80;99.90
42803;DHT22;28447;48.682;9.022;2022-08-01T04:52:11;16.30;99.90
42803;DHT22;28447;48.682;9.022;2022-08-01T04:54:36;16.60;99.90
42803;DHT22;28447;48.682;9.022;2022-08-01T04:57:05;16.70;99.90
42803;DHT22;28447;48.682;9.022;2022-08-01T04:59:32;16.20;99.90
42803;DHT22;28447;48.682;9.022;2022-08-01T05:02:10;16.60;99.90
42803;DHT22;28447;48.682;9.022;2022-08-01T05:07:03;16.80;99.90
42803;DHT22;28447;48.682;9.022;2022-08-01T05:09:29;17.30;99.90
42803;DHT22;28447;48.682;9.022;2022-08-01T05:11:56;16.70;99.90
42803;DHT22;28447;48.682;9.022;2022-08-01T05:14:27;17.70;99.90
42803;DHT22;28447;48.682;9.022;2022-08-01T05:19:19;17.70;99.90
42803;DHT22;28447;48.682;9.022;2022-08-01T05:21:45;17.90;99.90
42803;DHT22;28447;48.682;9.022;2022-08-01T05:24:11;17.30;99.90
42803;DHT22;28447;48.682;9.022;2022-08-01T05:26:38;17.90;99.90
42803;DHT22;28447;48.682;9.022;2022-08-01T05:29:04;17.50;99.90
42803;DHT22;28447;48.682;9.022;2022-08-01T05:31:29;18.00;99.90
42803;DHT22;28447;48.682;9.022;2022-08-01T05:33:55;18.80;99.90
42803;DHT22;28447;48.682;9.022;2022-08-01T05:36:21;18.90;99.90
42803;DHT22;28447;48.682;9.022;2022-08-01T05:38:46;18.60;99.90
42803;DHT22;28447;48.682;9.022;2022-08-01T05:41:12;18.80;99.90
42803;DHT22;28447;48.682;9.022;2022-08-01T05:46:03;18.60;99.90
42803;DHT22;28447;48.682;9.022;2022-08-01T05:50:55;19.10;99.90
42803;DHT22;28447;48.682;9.022;2022-08-01T05:55:47;20.30;99.90
42803;DHT22;28447;48.682;9.022;2022-08-01T05:58:12;20.20;99.90
42803;DHT22;28447;48.682;9.022;2022-08-01T06:00:39;20.30;99.90
42803;DHT22;28447;48.682;9.022;2022-08-01T06:05:31;20.20;99.90
42803;DHT22;28447;48.682;9.022;2022-08-01T06:07:57;17.40;99.90
42803;DHT22;28447;48.682;9.022;2022-08-01T06:10:23;20.70;99.90
42803;DHT22;28447;48.682;9.022;2022-08-01T06:15:15;20.60;99.90
42803;DHT22;28447;48.682;9.022;2022-08-01T06:17:40;20.80;99.90
42803;DHT22;28447;48.682;9.022;2022-08-01T06:20:07;20.70;99.90
42803;DHT22;28447;48.682;9.022;2022-08-01T06:24:59;21.30;99.90
42803;DHT22;28447;48.682;9.022;2022-08-01T06:27:24;21.20;99.90
42803;DHT22;28447;48.682;9.022;2022-08-01T06:29:51;21.10;99.90
42803;DHT22;28447;48.682;9.022;2022-08-01T06:32:19;21.10;99.90
42803;DHT22;28447;48.682;9.022;2022-08-01T06:34:45;21.40;99.90
42803;DHT22;28447;48.682;9.022;2022-08-01T06:37:10;21.00;99.90
42803;DHT22;28447;48.682;9.022;2022-08-01T06:39:39;21.40;99.90
42803;DHT22;28447;48.682;9.022;2022-08-01T06:42:04;21.50;99.90
42803;DHT22;28447;48.682;9.022;2022-08-01T06:44:30;21.70;99.90
42803;DHT22;28447;48.682;9.022;2022-08-01T06:46:55;21.50;99.90
42803;DHT22;28447;48.682;9.022;2022-08-01T06:49:24;22.20;99.90
42803;DHT22;28447;48.682;9.022;2022-08-01T06:51:49;22.20;99.90
42803;DHT22;28447;48.682;9.022;2022-08-01T06:54:15;22.50;99.90
42803;DHT22;28447;48.682;9.022;2022-08-01T06:56:41;22.40;99.90
42803;DHT22;28447;48.682;9.022;2022-08-01T06:59:07;22.30;99.90
42803;DHT22;28447;48.682;9.022;2022-08-01T07:01:33;22.60;99.90
42803;DHT22;28447;48.682;9.022;2022-08-01T07:03:58;22.50;99.90
42803;DHT22;28447;48.682;9.022;2022-08-01T07:06:25;22.60;99.90
42803;DHT22;28447;48.682;9.022;2022-08-01T07:08:52;23.20;99.90
42803;DHT22;28447;48.682;9.022;2022-08-01T07:11:18;23.00;99.90
42803;DHT22;28447;48.682;9.022;2022-08-01T07:13:44;22.90;99.90
42803;DHT22;28447;48.682;9.022;2022-08-01T07:16:12;23.50;99.90
42803;DHT22;28447;48.682;9.022;2022-08-01T07:18:37;22.80;99.90
42803;DHT22;28447;48.682;9.022;2022-08-01T07:21:03;23.90;99.90
42803;DHT22;28447;48.682;9.022;2022-08-01T07:25:54;22.80;99.90
42803;DHT22;28447;48.682;9.022;2022-08-01T07:28:20;23.10;99.90
42803;DHT22;28447;48.682;9.022;2022-08-01T07:30:46;23.40;99.90
42803;DHT22;28447;48.682;9.022;2022-08-01T07:33:11;22.70;99.90
42803;DHT22;28447;48.682;9.022;2022-08-01T07:38:06;23.10;99.90
42803;DHT22;28447;48.682;9.022;2022-08-01T07:40:32;23.30;99.90
42803;DHT22;28447;48.682;9.022;2022-08-01T07:42:58;23.40;99.90
42803;DHT22;28447;48.682;9.022;2022-08-01T07:45:24;23.60;99.90
42803;DHT22;28447;48.682;9.022;2022-08-01T07:47:49;23.80;99.90
42803;DHT22;28447;48.682;9.022;2022-08-01T07:50:16;23.70;99.90
42803;DHT22;28447;48.682;9.022;2022-08-01T07:52:42;24.20;99.90
42803;DHT22;28447;48.682;9.022;2022-08-01T07:55:09;24.40;99.90
42803;DHT22;28447;48.682;9.022;2022-08-01T07:57:35;23.40;99.90
42803;DHT22;28447;48.682;9.022;2022-08-01T08:00:02;23.60;99.90
42803;DHT22;28447;48.682;9.022;2022-08-01T08:02:28;23.90;99.90
42803;DHT22;28447;48.682;9.022;2022-08-01T08:04:54;23.40;99.90
42803;DHT22;28447;48.682;9.022;2022-08-01T08:09:46;24.20;99.90
42803;DHT22;28447;48.682;9.022;2022-08-01T08:12:11;24.60;99.90
42803;DHT22;28447;48.682;9.022;2022-08-01T08:14:37;23.80;99.90
42803;DHT22;28447;48.682;9.022;2022-08-01T08:17:04;24.00;99.90
42803;DHT22;28447;48.682;9.022;2022-08-01T08:19:31;24.80;99.90
42803;DHT22;28447;48.682;9.022;2022-08-01T08:22:01;23.90;99.90
42803;DHT22;28447;48.682;9.022;2022-08-01T08:26:59;24.10;99.90
42803;DHT22;28447;48.682;9.022;2022-08-01T08:29:26;23.70;99.90
42803;DHT22;28447;48.682;9.022;2022-08-01T08:31:53;23.60;99.90
42803;DHT22;28447;48.682;9.022;2022-08-01T08:34:19;23.90;99.90
42803;DHT22;28447;48.682;9.022;2022-08-01T08:36:44;24.70;99.90
42803;DHT22;28447;48.682;9.022;2022-08-01T08:39:10;25.40;99.90
42803;DHT22;28447;48.682;9.022;2022-08-01T08:41:36;25.10;99.90
42803;DHT22;28447;48.682;9.022;2022-08-01T08:44:07;24.80;99.90
42803;DHT22;28447;48.682;9.022;2022-08-01T08:46:33;25.00;99.90
42803;DHT22;28447;48.682;9.022;2022-08-01T08:51:31;25.90;99.90
42803;DHT22;28447;48.682;9.022;2022-08-01T08:53:58;26.50;99.90
42803;DHT22;28447;48.682;9.022;2022-08-01T08:56:26;25.30;99.90
42803;DHT22;28447;48.682;9.022;2022-08-01T08:58:55;24.60;99.90
42803;DHT22;28447;48.682;9.022;2022-08-01T09:08:40;24.70;99.90
42803;DHT22;28447;48.682;9.022;2022-08-01T09:11:06;24.50;99.90
42803;DHT22;28447;48.682;9.022;2022-08-01T09:13:32;25.40;99.90
42803;DHT22;28447;48.682;9.022;2022-08-01T09:18:39;25.60;99.90
42803;DHT22;28447;48.682;9.022;2022-08-01T09:21:14;25.40;99.90
42803;DHT22;28447;48.682;9.022;2022-08-01T09:23:44;24.90;99.90
42803;DHT22;28447;48.682;9.022;2022-08-01T09:26:12;25.10;99.90
42803;DHT22;28447;48.682;9.022;2022-08-01T09:28:38;25.00;99.90
42803;DHT22;28447;48.682;9.022;2022-08-01T09:31:06;25.30;99.90
42803;DHT22;28447;48.682;9.022;2022-08-01T09:33:53;25.80;99.90
42803;DHT22;28447;48.682;9.022;2022-08-01T09:36:21;25.80;99.90
42803;DHT22;28447;48.682;9.022;2022-08-01T09:43:39;25.90;99.90
42803;DHT22;28447;48.682;9.022;2022-08-01T09:46:09;25.70;99.90
42803;DHT22;28447;48.682;9.022;2022-08-01T09:48:37;25.20;99.90
42803;DHT22;28447;48.682;9.022;2022-08-01T09:51:05;25.00;99.90
42803;DHT22;28447;48.682;9.022;2022-08-01T09:53:47;25.20;99.90
42803;DHT22;28447;48.682;9.022;2022-08-01T09:56:13;25.30;99.90
42803;DHT22;28447;48.682;9.022;2022-08-01T09:58:57;24.70;99.90
42803;DHT22;28447;48.682;9.022;2022-08-01T10:01:23;24.80;99.90
42803;DHT22;28447;48.682;9.022;2022-08-01T10:04:13;25.20;99.90
42803;DHT22;28447;48.682;9.022;2022-08-01T10:06:40;25.40;99.90
42803;DHT22;28447;48.682;9.022;2022-08-01T10:11:34;27.60;99.90
42803;DHT22;28447;48.682;9.022;2022-08-01T10:14:05;27.30;99.90
42803;DHT22;28447;48.682;9.022;2022-08-01T10:16:35;27.80;99.90
42803;DHT22;28447;48.682;9.022;2022-08-01T10:19:03;28.20;99.90
42803;DHT22;28447;48.682;9.022;2022-08-01T10:21:32;27.60;99.90
42803;DHT22;28447;48.682;9.022;2022-08-01T10:23:58;26.70;99.90
42803;DHT22;28447;48.682;9.022;2022-08-01T10:26:26;26.20;99.90
42803;DHT22;28447;48.682;9.022;2022-08-01T10:28:52;27.60;99.90
42803;DHT22;28447;48.682;9.022;2022-08-01T10:31:19;28.30;99.90
42803;DHT22;28447;48.682;9.022;2022-08-01T10:33:45;28.50;99.90
42803;DHT22;28447;48.682;9.022;2022-08-01T10:38:39;26.90;99.90
42803;DHT22;28447;48.682;9.022;2022-08-01T10:41:06;26.80;99.90
42803;DHT22;28447;48.682;9.022;2022-08-01T10:45:59;27.20;99.90
42803;DHT22;28447;48.682;9.022;2022-08-01T10:48:55;26.40;99.90
42803;DHT22;28447;48.682;9.022;2022-08-01T10:53:51;27.70;99.90
42803;DHT22;28447;48.682;9.022;2022-08-01T10:58:46;26.80;99.90
42803;DHT22;28447;48.682;9.022;2022-08-01T11:01:23;26.90;99.90
42803;DHT22;28447;48.682;9.022;2022-08-01T11:04:10;26.10;99.90
42803;DHT22;28447;48.682;9.022;2022-08-01T11:07:06;25.70;99.90
42803;DHT22;28447;48.682;9.022;2022-08-01T11:09:44;26.00;99.90
42803;DHT22;28447;48.682;9.022;2022-08-01T11:12:11;26.00;99.90
42803;DHT22;28447;48.682;9.022;2022-08-01T11:15:17;26.70;99.90
42803;DHT22;28447;48.682;9.022;2022-08-01T11:17:49;26.60;99.90
42803;DHT22;28447;48.682;9.022;2022-08-01T11:30:51;28.00;99.90
42803;DHT22;28447;48.682;9.022;2022-08-01T11:33:19;28.80;99.90
42803;DHT22;28447;48.682;9.022;2022-08-01T11:38:37;27.70;99.90
42803;DHT22;28447;48.682;9.022;2022-08-01T11:41:23;27.10;99.90
42803;DHT22;28447;48.682;9.022;2022-08-01T11:44:10;27.40;99.90
42803;DHT22;28447;48.682;9.022;2022-08-01T11:46:50;27.20;99.90
42803;DHT22;28447;48.682;9.022;2022-08-01T11:52:09;26.90;99.90
42803;DHT22;28447;48.682;9.022;2022-08-01T11:54:44;26.80;99.90
42803;DHT22;28447;48.682;9.022;2022-08-01T11:57:18;26.20;99.90
42803;DHT22;28447;48.682;9.022;2022-08-01T11:59:48;25.60;99.90
42803;DHT22;28447;48.682;9.022;2022-08-01T12:02:25;25.70;99.90
42803;DHT22;28447;48.682;9.022;2022-08-01T12:05:09;26.10;99.90
42803;DHT22;28447;48.682;9.022;2022-08-01T12:07:38;26.20;99.90
42803;DHT22;28447;48.682;9.022;2022-08-01T12:10:09;26.00;99.90
42803;DHT22;28447;48.682;9.022;2022-08-01T12:12:36;26.80;99.90
42803;DHT22;28447;48.682;9.022;2022-08-01T12:15:05;29.30;99.90
42803;DHT22;28447;48.682;9.022;2022-08-01T12:17:58;31.20;99.90
42803;DHT22;28447;48.682;9.022;2022-08-01T12:20:29;32.10;99.90
42803;DHT22;28447;48.682;9.022;2022-08-01T12:22:56;33.00;99.90
42803;DHT22;28447;48.682;9.022;2022-08-01T12:25:22;34.70;99.90
42803;DHT22;28447;48.682;9.022;2022-08-01T12:27:49;33.60;97.80
42803;DHT22;28447;48.682;9.022;2022-08-01T12:30:17;33.00;99.90
42803;DHT22;28447;48.682;9.022;2022-08-01T12:32:47;31.90;99.90
42803;DHT22;28447;48.682;9.022;2022-08-01T12:35:16;30.60;99.90
42803;DHT22;28447;48.682;9.022;2022-08-01T12:37:47;28.20;99.90
42803;DHT22;28447;48.682;9.022;2022-08-01T12:42:54;27.90;99.90
42803;DHT22;28447;48.682;9.022;2022-08-01T12:45:24;27.50;99.90
42803;DHT22;28447;48.682;9.022;2022-08-01T12:47:52;28.40;99.90
42803;DHT22;28447;48.682;9.022;2022-08-01T12:50:23;29.00;99.90
42803;DHT22;28447;48.682;9.022;2022-08-01T12:52:49;31.00;99.90
42803;DHT22;28447;48.682;9.022;2022-08-01T12:55:17;32.90;99.50
42803;DHT22;28447;48.682;9.022;2022-08-01T12:57:45;34.00;99.90
42803;DHT22;28447;48.682;9.022;2022-08-01T13:02:41;33.20;99.00
42803;DHT22;28447;48.682;9.022;2022-08-01T13:05:08;32.20;92.50
42803;DHT22;28447;48.682;9.022;2022-08-01T13:07:46;31.00;94.40
42803;DHT22;28447;48.682;9.022;2022-08-01T13:10:14;30.30;99.90
42803;DHT22;28447;48.682;9.022;2022-08-01T13:12:49;29.60;99.90
42803;DHT22;28447;48.682;9.022;2022-08-01T13:15:30;29.00;99.30
42803;DHT22;28447;48.682;9.022;2022-08-01T13:18:02;28.90;99.90
42803;DHT22;28447;48.682;9.022;2022-08-01T13:23:17;28.10;99.90
42803;DHT22;28447;48.682;9.022;2022-08-01T13:25:55;28.30;99.90
42803;DHT22;28447;48.682;9.022;2022-08-01T13:28:27;29.70;99.90
42803;DHT22;28447;48.682;9.022;2022-08-01T13:33:25;34.30;98.70
42803;DHT22;28447;48.682;9.022;2022-08-01T13:35:52;33.50;94.00
42803;DHT22;28447;48.682;9.022;2022-08-01T13:38:18;34.20;94.30
42803;DHT22;28447;48.682;9.022;2022-08-01T13:45:36;34.70;92.60
42803;DHT22;28447;48.682;9.022;2022-08-01T13:48:04;33.40;92.90
42803;DHT22;28447;48.682;9.022;2022-08-01T13:50:30;31.40;93.70
42803;DHT22;28447;48.682;9.022;2022-08-01T13:52:56;30.90;96.30
42803;DHT22;28447;48.682;9.022;2022-08-01T13:55:21;29.60;95.50
42803;DHT22;28447;48.682;9.022;2022-08-01T13:57:47;29.20;97.40
42803;DHT22;28447;48.682;9.022;2022-08-01T14:00:13;28.60;98.10
42803;DHT22;28447;48.682;9.022;2022-08-01T14:02:39;29.40;97.80
42803;DHT22;28447;48.682;9.022;2022-08-01T14:05:05;30.30;97.20
42803;DHT22;28447;48.682;9.022;2022-08-01T14:07:31;29.30;96.60
42803;DHT22;28447;48.682;9.022;2022-08-01T14:09:57;29.10;98.00
42803;DHT22;28447;48.682;9.022;2022-08-01T14:12:23;28.70;98.70
42803;DHT22;28447;48.682;9.022;2022-08-01T14:14:48;28.60;98.70
42803;DHT22;28447;48.682;9.022;2022-08-01T14:17:14;30.00;99.90
42803;DHT22;28447;48.682;9.022;2022-08-01T14:19:40;30.50;98.70
42803;DHT22;28447;48.682;9.022;2022-08-01T14:22:05;30.50;96.20
42803;DHT22;28447;48.682;9.022;2022-08-01T14:24:31;31.80;98.80
42803;DHT22;28447;48.682;9.022;2022-08-01T14:31:49;31.50;95.10
42803;DHT22;28447;48.682;9.022;2022-08-01T14:43:59;32.50;94.90
42803;DHT22;28447;48.682;9.022;2022-08-01T14:48:51;31.30;95.90
42803;DHT22;28447;48.682;9.022;2022-08-01T14:51:16;31.10;95.30
42803;DHT22;28447;48.682;9.022;2022-08-01T14:56:08;30.70;95.60
42803;DHT22;28447;48.682;9.022;2022-08-01T15:01:00;31.20;95.90
42803;DHT22;28447;48.682;9.022;2022-08-01T15:03:26;31.20;97.60
42803;DHT22;28447;48.682;9.022;2022-08-01T15:08:18;30.50;99.90
42803;DHT22;28447;48.682;9.022;2022-08-01T15:10:43;31.20;99.20
42803;DHT22;28447;48.682;9.022;2022-08-01T15:13:09;30.90;98.10
42803;DHT22;28447;48.682;9.022;2022-08-01T15:15:34;31.00;99.90
42803;DHT22;28447;48.682;9.022;2022-08-01T15:18:00;30.30;97.60
42803;DHT22;28447;48.682;9.022;2022-08-01T15:20:26;31.00;98.00
42803;DHT22;28447;48.682;9.022;2022-08-01T15:22:53;29.30;99.90
42803;DHT22;28447;48.682;9.022;2022-08-01T15:25:19;29.50;99.20
42803;DHT22;28447;48.682;9.022;2022-08-01T15:27:45;30.90;97.40
42803;DHT22;28447;48.682;9.022;2022-08-01T15:30:11;30.30;97.60
42803;DHT22;28447;48.682;9.022;2022-08-01T15:32:37;29.70;98.00
42803;DHT22;28447;48.682;9.022;2022-08-01T15:37:30;28.80;99.90
42803;DHT22;28447;48.682;9.022;2022-08-01T15:47:14;28.30;99.20
42803;DHT22;28447;48.682;9.022;2022-08-01T15:49:39;28.50;99.90
42803;DHT22;28447;48.682;9.022;2022-08-01T15:52:06;28.50;99.20
42803;DHT22;28447;48.682;9.022;2022-08-01T15:54:32;28.60;99.90
42803;DHT22;28447;48.682;9.022;2022-08-01T15:59:24;28.20;98.50
42803;DHT22;28447;48.682;9.022;2022-08-01T16:04:17;27.30;99.90
42803;DHT22;28447;48.682;9.022;2022-08-01T16:06:44;27.40;99.90
42803;DHT22;28447;48.682;9.022;2022-08-01T16:09:09;27.00;99.90
42803;DHT22;28447;48.682;9.022;2022-08-01T16:11:35;27.10;99.90
42803;DHT22;28447;48.682;9.022;2022-08-01T16:14:01;26.60;99.90
42803;DHT22;28447;48.682;9.022;2022-08-01T16:16:27;27.10;99.90
42803;DHT22;28447;48.682;9.022;2022-08-01T16:18:53;26.80;99.90
42803;DHT22;28447;48.682;9.022;2022-08-01T16:21:18;27.00;99.90
42803;DHT22;28447;48.682;9.022;2022-08-01T16:23:45;26.90;99.50
42803;DHT22;28447;48.682;9.022;2022-08-01T16:31:03;26.00;99.90
42803;DHT22;28447;48.682;9.022;2022-08-01T16:33:29;26.00;99.90
42803;DHT22;28447;48.682;9.022;2022-08-01T16:35:55;26.70;99.90
42803;DHT22;28447;48.682;9.022;2022-08-01T16:38:21;26.40;99.20
42803;DHT22;28447;48.682;9.022;2022-08-01T16:40:49;26.30;99.90
42803;DHT22;28447;48.682;9.022;2022-08-01T16:43:16;26.80;99.90
42803;DHT22;28447;48.682;9.022;2022-08-01T16:45:43;26.00;99.90
42803;DHT22;28447;48.682;9.022;2022-08-01T16:48:11;26.60;99.90
42803;DHT22;28447;48.682;9.022;2022-08-01T16:50:39;25.60;99.90
42803;DHT22;28447;48.682;9.022;2022-08-01T16:53:05;25.60;99.90
42803;DHT22;28447;48.682;9.022;2022-08-01T16:57:57;25.40;99.90
42803;DHT22;28447;48.682;9.022;2022-08-01T17:00:24;25.80;99.90
42803;DHT22;28447;48.682;9.022;2022-08-01T17:02:51;25.70;99.90
42803;DHT22;28447;48.682;9.022;2022-08-01T17:05:17;25.80;99.90
42803;DHT22;28447;48.682;9.022;2022-08-01T17:07:44;25.30;99.90
42803;DHT22;28447;48.682;9.022;2022-08-01T17:10:10;25.10;99.90
42803;DHT22;28447;48.682;9.022;2022-08-01T17:12:36;25.20;99.90
42803;DHT22;28447;48.682;9.022;2022-08-01T17:17:29;25.80;99.90
42803;DHT22;28447;48.682;9.022;2022-08-01T17:19:55;25.50;99.90
42803;DHT22;28447;48.682;9.022;2022-08-01T17:22:21;26.00;99.90
42803;DHT22;28447;48.682;9.022;2022-08-01T17:24:46;25.90;99.90
42803;DHT22;28447;48.682;9.022;2022-08-01T17:27:12;25.60;99.90
42803;DHT22;28447;48.682;9.022;2022-08-01T17:29:37;25.50;99.90
42803;DHT22;28447;48.682;9.022;2022-08-01T17:32:04;25.50;99.90
42803;DHT22;28447;48.682;9.022;2022-08-01T17:34:30;25.80;99.90
42803;DHT22;28447;48.682;9.022;2022-08-01T17:36:56;25.40;99.90
42803;DHT22;28447;48.682;9.022;2022-08-01T17:39:21;25.30;99.90
42803;DHT22;28447;48.682;9.022;2022-08-01T17:56:24;25.10;99.90
42803;DHT22;28447;48.682;9.022;2022-08-01T17:58:51;25.10;99.90
42803;DHT22;28447;48.682;9.022;2022-08-01T18:01:17;25.10;99.90
42803;DHT22;28447;48.682;9.022;2022-08-01T18:06:10;24.90;99.90
42803;DHT22;28447;48.682;9.022;2022-08-01T18:30:37;24.40;99.90
42803;DHT22;28447;48.682;9.022;2022-08-01T18:35:28;24.40;99.90
42803;DHT22;28447;48.682;9.022;2022-08-01T18:40:21;24.60;99.90
42803;DHT22;28447;48.682;9.022;2022-08-01T18:45:15;23.90;99.90
42803;DHT22;28447;48.682;9.022;2022-08-01T18:50:07;24.30;99.90
42803;DHT22;28447;48.682;9.022;2022-08-01T18:52:33;24.20;99.90
42803;DHT22;28447;48.682;9.022;2022-08-01T19:02:18;23.90;99.90
42803;DHT22;28447;48.682;9.022;2022-08-01T19:04:43;23.80;99.90